Aérodrome :
LOGIN :

S'inscrire | Disclaimer

   EN    FR    IT 

 










Légende :    VFR   VFR Marginal   IFR   IFR Intensif   IFR Très Intensif
Visi : 
Plafond : 
>= 8 km
>= 3000ft
5 à 8 km
1000 à 3000 ft
1500m à 5 km
500 à 1000 ft
800 à 1500m
200 à 500 ft
< 800m
< 200 ft
Symboles :   Orages  Brouillard  Fortes neiges  Fortes précipitations  Vent > 20 kt
SIGMETs :   Divers  Orages  Givrage  Turbulence  Onde Orograph.  Cendres Volcan.






- Altitude de l'aérodrome : 358 ft


EGTC - Cranfield

DERNIER METAR :
  • 221350Z 23008KT 200V270 CAVOK 21/10 Q1011

METARs EXPIRÉS :
  • 221320Z 22008KT 160V270 9999 FEW045 21/10 Q1011
  • 221250Z 21010KT 180V240 CAVOK 20/09 Q1012
  • 221220Z 22009KT 9999 FEW042 20/10 Q1012
  • 221150Z 21009KT 160V250 9999 FEW044 20/10 Q1013
  • 221120Z 22011KT 9999 SCT042 20/09 Q1013

TAF TAF EGTC
Valide du 22 à 12h jusqu'au 22 à 17h UTC


221057Z 2212/2217 21007KT 9999 SCT040



MET'MAP, la Météo Aéronautique d'un coup d'oeil ! - Copyright ORBIFLY Décembre 2007 - Disclaimer

ORBIFLY MET'MAP TEAM :

Programmation & Développement : Alexandra Zaïnal
Sur une idée originale de : Baudouin d'Aumeries
Soutien technique & logistique : Manuel Goepfert
Assistance : Marc-Olivier Méhu

Contact : metmap@orbifly.com




SOURCES & CREDITS :

   NOAA